sensor_id;sensor_type;location;lat;lon;timestamp;pressure;altitude;pressure_sealevel;temperature;humidity
21547;BME280;41275;51.912;4.388;2022-09-03T00:02:41;101011.59;;;27.06;27.71
21547;BME280;41275;51.912;4.388;2022-09-03T00:08:38;101007.44;;;27.08;27.78
21547;BME280;41275;51.912;4.388;2022-09-03T00:14:06;101002.78;;;27.09;27.89
21547;BME280;41275;51.912;4.388;2022-09-03T00:19:32;101002.88;;;27.00;27.82
21547;BME280;41275;51.912;4.388;2022-09-03T00:24:57;100999.91;;;26.93;28.03
21547;BME280;41275;51.912;4.388;2022-09-03T00:30:21;100996.00;;;26.82;28.35
21547;BME280;41275;51.912;4.388;2022-09-03T00:36:04;100988.19;;;26.80;28.56
21547;BME280;41275;51.912;4.388;2022-09-03T00:41:35;100991.56;;;26.77;28.53
21547;BME280;41275;51.912;4.388;2022-09-03T00:53:11;100999.56;;;26.74;28.83
21547;BME280;41275;51.912;4.388;2022-09-03T00:58:50;101004.38;;;26.68;28.75
21547;BME280;41275;51.912;4.388;2022-09-03T01:21:53;101000.88;;;26.47;29.16
21547;BME280;41275;51.912;4.388;2022-09-03T01:28:00;101008.38;;;26.50;29.15
21547;BME280;41275;51.912;4.388;2022-09-03T01:33:30;101007.25;;;26.42;29.28
21547;BME280;41275;51.912;4.388;2022-09-03T01:38:59;101000.13;;;26.37;29.06
21547;BME280;41275;51.912;4.388;2022-09-03T01:50:25;100997.63;;;26.24;29.52
21547;BME280;41275;51.912;4.388;2022-09-03T01:56:17;100987.97;;;26.14;29.66
21547;BME280;41275;51.912;4.388;2022-09-03T02:01:45;100999.16;;;26.04;29.83
21547;BME280;41275;51.912;4.388;2022-09-03T02:07:09;101000.19;;;25.90;30.03
21547;BME280;41275;51.912;4.388;2022-09-03T02:12:32;101001.66;;;25.79;30.07
21547;BME280;41275;51.912;4.388;2022-09-03T02:18:00;100996.75;;;25.64;30.36
21547;BME280;41275;51.912;4.388;2022-09-03T02:23:22;100993.75;;;25.48;30.78
21547;BME280;41275;51.912;4.388;2022-09-03T02:28:45;100993.78;;;25.31;31.01
21547;BME280;41275;51.912;4.388;2022-09-03T02:34:06;100979.47;;;25.13;31.35
21547;BME280;41275;51.912;4.388;2022-09-03T02:39:28;100992.50;;;25.02;31.73
21547;BME280;41275;51.912;4.388;2022-09-03T02:45:15;100997.16;;;24.93;32.02
21547;BME280;41275;51.912;4.388;2022-09-03T02:50:41;100989.03;;;24.84;32.07
21547;BME280;41275;51.912;4.388;2022-09-03T02:56:02;100999.38;;;24.73;32.15
21547;BME280;41275;51.912;4.388;2022-09-03T03:01:23;100985.34;;;24.63;32.39
21547;BME280;41275;51.912;4.388;2022-09-03T03:06:45;100992.81;;;24.57;32.46
21547;BME280;41275;51.912;4.388;2022-09-03T03:12:06;100985.66;;;24.53;32.66
21547;BME280;41275;51.912;4.388;2022-09-03T03:17:28;100990.91;;;24.49;32.93
21547;BME280;41275;51.912;4.388;2022-09-03T03:22:49;100987.06;;;24.41;33.26
21547;BME280;41275;51.912;4.388;2022-09-03T03:28:10;100991.00;;;24.35;33.56
21547;BME280;41275;51.912;4.388;2022-09-03T03:33:34;100989.88;;;24.36;33.18
21547;BME280;41275;51.912;4.388;2022-09-03T03:38:56;100989.47;;;24.43;33.40
21547;BME280;41275;51.912;4.388;2022-09-03T03:44:18;100984.38;;;24.50;33.04
21547;BME280;41275;51.912;4.388;2022-09-03T03:49:40;100992.34;;;24.46;32.48
21547;BME280;41275;51.912;4.388;2022-09-03T03:55:01;100990.56;;;24.42;32.72
21547;BME280;41275;51.912;4.388;2022-09-03T04:00:22;100985.28;;;24.37;32.67
21547;BME280;41275;51.912;4.388;2022-09-03T04:05:54;100984.47;;;24.28;32.98
21547;BME280;41275;51.912;4.388;2022-09-03T04:11:18;100984.44;;;24.19;33.31
21547;BME280;41275;51.912;4.388;2022-09-03T04:16:39;100980.94;;;24.10;33.55
21547;BME280;41275;51.912;4.388;2022-09-03T04:22:01;100976.75;;;24.04;33.63
21547;BME280;41275;51.912;4.388;2022-09-03T04:27:23;100973.41;;;23.98;33.52
21547;BME280;41275;51.912;4.388;2022-09-03T04:32:44;100976.88;;;23.90;33.78
21547;BME280;41275;51.912;4.388;2022-09-03T04:38:15;100980.03;;;23.83;33.50
21547;BME280;41275;51.912;4.388;2022-09-03T04:43:37;100985.06;;;23.76;34.16
21547;BME280;41275;51.912;4.388;2022-09-03T04:48:58;100977.91;;;23.71;34.05
21547;BME280;41275;51.912;4.388;2022-09-03T04:54:19;100986.41;;;23.65;34.54
21547;BME280;41275;51.912;4.388;2022-09-03T04:59:41;100983.06;;;23.59;34.57
21547;BME280;41275;51.912;4.388;2022-09-03T05:05:03;100988.59;;;23.54;34.85
21547;BME280;41275;51.912;4.388;2022-09-03T05:10:24;100990.31;;;23.50;34.74
21547;BME280;41275;51.912;4.388;2022-09-03T05:15:45;100991.75;;;23.47;34.49
21547;BME280;41275;51.912;4.388;2022-09-03T05:21:08;100996.72;;;23.54;34.28
21547;BME280;41275;51.912;4.388;2022-09-03T05:26:34;100993.53;;;23.61;34.43
21547;BME280;41275;51.912;4.388;2022-09-03T05:31:56;100985.41;;;23.74;34.23
21547;BME280;41275;51.912;4.388;2022-09-03T05:37:18;100985.56;;;23.78;33.83
21547;BME280;41275;51.912;4.388;2022-09-03T05:42:39;100989.72;;;23.84;33.86
21547;BME280;41275;51.912;4.388;2022-09-03T05:48:00;100991.63;;;23.84;33.64
21547;BME280;41275;51.912;4.388;2022-09-03T05:53:22;100994.50;;;23.87;33.54
21547;BME280;41275;51.912;4.388;2022-09-03T05:58:52;101007.59;;;23.94;33.50
21547;BME280;41275;51.912;4.388;2022-09-03T06:04:15;100997.41;;;23.99;33.51
21547;BME280;41275;51.912;4.388;2022-09-03T06:09:36;100998.72;;;24.02;33.21
21547;BME280;41275;51.912;4.388;2022-09-03T06:14:57;101003.63;;;24.09;32.70
21547;BME280;41275;51.912;4.388;2022-09-03T06:20:19;101005.72;;;24.12;32.74
21547;BME280;41275;51.912;4.388;2022-09-03T06:25:40;101009.41;;;24.24;32.83
21547;BME280;41275;51.912;4.388;2022-09-03T06:31:03;101010.25;;;24.34;32.84
21547;BME280;41275;51.912;4.388;2022-09-03T06:36:24;101015.88;;;24.46;32.80
21547;BME280;41275;51.912;4.388;2022-09-03T06:41:46;101026.25;;;24.61;32.41
21547;BME280;41275;51.912;4.388;2022-09-03T06:47:11;101026.09;;;24.75;32.15
21547;BME280;41275;51.912;4.388;2022-09-03T06:52:32;101028.50;;;24.85;32.12
21547;BME280;41275;51.912;4.388;2022-09-03T06:57:54;101019.59;;;24.93;31.88
21547;BME280;41275;51.912;4.388;2022-09-03T07:03:17;101019.63;;;25.11;31.83
21547;BME280;41275;51.912;4.388;2022-09-03T07:08:39;101025.50;;;25.30;31.56
21547;BME280;41275;51.912;4.388;2022-09-03T07:14:03;101029.94;;;25.52;31.46
21547;BME280;41275;51.912;4.388;2022-09-03T07:19:25;101024.00;;;25.67;31.40
21547;BME280;41275;51.912;4.388;2022-09-03T07:24:46;101024.75;;;25.85;31.03
21547;BME280;41275;51.912;4.388;2022-09-03T07:30:08;101033.34;;;25.96;30.70
21547;BME280;41275;51.912;4.388;2022-09-03T07:35:30;101032.69;;;25.99;30.35
21547;BME280;41275;51.912;4.388;2022-09-03T07:41:00;101035.16;;;26.13;30.66
21547;BME280;41275;51.912;4.388;2022-09-03T07:46:26;101026.97;;;26.30;30.44
21547;BME280;41275;51.912;4.388;2022-09-03T07:51:50;101029.09;;;26.54;30.42
21547;BME280;41275;51.912;4.388;2022-09-03T07:57:13;101057.38;;;26.95;30.24
21547;BME280;41275;51.912;4.388;2022-09-03T08:02:35;101043.81;;;27.16;29.96
21547;BME280;41275;51.912;4.388;2022-09-03T08:07:59;101042.53;;;27.34;29.38
21547;BME280;41275;51.912;4.388;2022-09-03T08:13:20;101043.13;;;27.40;29.43
21547;BME280;41275;51.912;4.388;2022-09-03T08:18:41;101046.69;;;27.65;28.97
21547;BME280;41275;51.912;4.388;2022-09-03T08:24:03;101056.06;;;28.01;28.78
21547;BME280;41275;51.912;4.388;2022-09-03T08:29:24;101055.75;;;28.14;28.44
21547;BME280;41275;51.912;4.388;2022-09-03T08:34:45;101064.03;;;28.30;28.30
21547;BME280;41275;51.912;4.388;2022-09-03T08:40:08;101063.94;;;28.51;28.21
21547;BME280;41275;51.912;4.388;2022-09-03T08:45:30;101064.94;;;28.34;28.32
21547;BME280;41275;51.912;4.388;2022-09-03T08:50:56;101060.72;;;28.25;28.47
21547;BME280;41275;51.912;4.388;2022-09-03T08:56:24;101061.06;;;28.60;28.28
21547;BME280;41275;51.912;4.388;2022-09-03T09:24:25;101087.03;;;30.10;26.58
21547;BME280;41275;51.912;4.388;2022-09-03T09:29:48;101084.06;;;30.47;26.21
21547;BME280;41275;51.912;4.388;2022-09-03T09:35:10;101074.38;;;30.69;25.96
21547;BME280;41275;51.912;4.388;2022-09-03T09:40:33;101072.38;;;30.82;25.74
21547;BME280;41275;51.912;4.388;2022-09-03T09:46:08;101075.22;;;30.89;25.75
21547;BME280;41275;51.912;4.388;2022-09-03T09:51:31;101062.88;;;30.60;25.85
21547;BME280;41275;51.912;4.388;2022-09-03T09:57:01;101060.13;;;30.75;25.73
21547;BME280;41275;51.912;4.388;2022-09-03T10:02:25;101072.16;;;30.90;25.92
21547;BME280;41275;51.912;4.388;2022-09-03T10:08:18;101069.66;;;31.01;25.86
21547;BME280;41275;51.912;4.388;2022-09-03T10:13:42;101065.22;;;31.16;25.71
21547;BME280;41275;51.912;4.388;2022-09-03T10:19:14;101072.78;;;31.22;25.57
21547;BME280;41275;51.912;4.388;2022-09-03T10:24:58;101063.50;;;31.27;25.85
21547;BME280;41275;51.912;4.388;2022-09-03T10:30:21;101061.75;;;31.58;25.83
21547;BME280;41275;51.912;4.388;2022-09-03T10:35:45;101061.97;;;31.68;25.49
21547;BME280;41275;51.912;4.388;2022-09-03T10:41:45;101075.03;;;32.01;25.64
21547;BME280;41275;51.912;4.388;2022-09-03T10:59:44;101060.91;;;32.49;24.99
21547;BME280;41275;51.912;4.388;2022-09-03T11:10:24;101060.09;;;32.45;24.56
21547;BME280;41275;51.912;4.388;2022-09-03T11:15:54;101078.16;;;32.26;24.92
21547;BME280;41275;51.912;4.388;2022-09-03T11:21:19;101069.75;;;32.39;24.34
21547;BME280;41275;51.912;4.388;2022-09-03T11:26:50;101066.19;;;32.61;24.21
21547;BME280;41275;51.912;4.388;2022-09-03T11:32:35;101060.97;;;33.09;22.98
21547;BME280;41275;51.912;4.388;2022-09-03T11:38:07;101063.38;;;33.52;22.42
21547;BME280;41275;51.912;4.388;2022-09-03T11:43:43;101060.31;;;34.01;21.98
21547;BME280;41275;51.912;4.388;2022-09-03T11:49:12;101050.63;;;34.22;21.55
21547;BME280;41275;51.912;4.388;2022-09-03T11:54:45;101045.47;;;34.13;21.31
21547;BME280;41275;51.912;4.388;2022-09-03T12:00:15;101045.88;;;34.15;21.32
21547;BME280;41275;51.912;4.388;2022-09-03T12:06:03;101050.59;;;34.14;20.87
21547;BME280;41275;51.912;4.388;2022-09-03T12:12:00;101049.38;;;34.08;20.19
21547;BME280;41275;51.912;4.388;2022-09-03T12:23:38;101042.50;;;35.41;19.88
21547;BME280;41275;51.912;4.388;2022-09-03T12:29:02;101041.59;;;36.83;18.42
21547;BME280;41275;51.912;4.388;2022-09-03T12:34:25;101041.63;;;37.53;17.46
21547;BME280;41275;51.912;4.388;2022-09-03T12:39:55;101049.13;;;38.39;17.21
21547;BME280;41275;51.912;4.388;2022-09-03T12:45:22;101040.22;;;39.47;16.09
21547;BME280;41275;51.912;4.388;2022-09-03T12:50:45;101041.38;;;39.73;15.50
21547;BME280;41275;51.912;4.388;2022-09-03T12:56:07;101037.47;;;40.37;15.38
21547;BME280;41275;51.912;4.388;2022-09-03T13:01:38;101043.09;;;40.90;14.74
21547;BME280;41275;51.912;4.388;2022-09-03T13:07:04;101035.84;;;41.49;14.67
21547;BME280;41275;51.912;4.388;2022-09-03T13:12:30;101039.47;;;41.78;14.10
21547;BME280;41275;51.912;4.388;2022-09-03T13:18:07;101032.78;;;42.21;13.46
21547;BME280;41275;51.912;4.388;2022-09-03T13:24:33;101032.13;;;42.01;13.50
21547;BME280;41275;51.912;4.388;2022-09-03T13:29:25;101033.41;;;42.12;13.59
21547;BME280;41275;51.912;4.388;2022-09-03T13:35:03;101030.97;;;42.44;13.43
21547;BME280;41275;51.912;4.388;2022-09-03T13:46:22;101027.81;;;42.83;12.96
21547;BME280;41275;51.912;4.388;2022-09-03T13:52:33;101021.00;;;43.35;12.23
21547;BME280;41275;51.912;4.388;2022-09-03T13:58:06;101013.31;;;43.74;12.07
21547;BME280;41275;51.912;4.388;2022-09-03T14:03:35;101020.97;;;43.96;12.10
21547;BME280;41275;51.912;4.388;2022-09-03T14:09:10;101023.13;;;43.92;12.19
21547;BME280;41275;51.912;4.388;2022-09-03T14:14:37;101023.56;;;44.12;11.89
21547;BME280;41275;51.912;4.388;2022-09-03T14:20:32;101013.97;;;44.13;11.51
21547;BME280;41275;51.912;4.388;2022-09-03T14:26:00;101017.03;;;44.06;11.83
21547;BME280;41275;51.912;4.388;2022-09-03T14:32:01;101018.69;;;44.25;11.94
21547;BME280;41275;51.912;4.388;2022-09-03T14:43:50;101017.16;;;44.46;11.47
21547;BME280;41275;51.912;4.388;2022-09-03T15:06:18;101022.34;;;44.57;11.54
21547;BME280;41275;51.912;4.388;2022-09-03T15:11:54;101020.38;;;45.07;11.27
21547;BME280;41275;51.912;4.388;2022-09-03T15:17:33;101012.88;;;45.63;10.66
21547;BME280;41275;51.912;4.388;2022-09-03T15:23:18;101011.34;;;45.52;10.81
21547;BME280;41275;51.912;4.388;2022-09-03T15:50:52;101018.16;;;37.72;17.01
21547;BME280;41275;51.912;4.388;2022-09-03T15:56:29;101024.22;;;37.56;16.74
21547;BME280;41275;51.912;4.388;2022-09-03T16:02:03;101024.00;;;37.29;17.29
21547;BME280;41275;51.912;4.388;2022-09-03T16:24:17;101020.53;;;35.95;18.41
21547;BME280;41275;51.912;4.388;2022-09-03T16:29:40;101018.16;;;35.39;19.20
21547;BME280;41275;51.912;4.388;2022-09-03T16:35:23;101016.16;;;35.11;19.47
21547;BME280;41275;51.912;4.388;2022-09-03T16:41:01;101014.88;;;34.91;19.47
21547;BME280;41275;51.912;4.388;2022-09-03T16:51:54;101024.13;;;34.47;19.95
21547;BME280;41275;51.912;4.388;2022-09-03T17:03:41;101036.50;;;34.19;20.40
21547;BME280;41275;51.912;4.388;2022-09-03T17:09:33;101033.75;;;34.16;20.36
21547;BME280;41275;51.912;4.388;2022-09-03T17:21:11;101050.50;;;34.00;20.45
21547;BME280;41275;51.912;4.388;2022-09-03T17:26:58;101058.69;;;33.96;20.26
21547;BME280;41275;51.912;4.388;2022-09-03T17:38:25;101065.38;;;33.55;20.55
21547;BME280;41275;51.912;4.388;2022-09-03T17:43:59;101062.34;;;33.30;21.43
21547;BME280;41275;51.912;4.388;2022-09-03T17:49:39;101063.59;;;33.02;21.44
21547;BME280;41275;51.912;4.388;2022-09-03T17:55:13;101076.25;;;32.84;22.02
21547;BME280;41275;51.912;4.388;2022-09-03T18:00:41;101072.78;;;32.57;22.63
21547;BME280;41275;51.912;4.388;2022-09-03T18:06:10;101082.31;;;32.40;23.00
21547;BME280;41275;51.912;4.388;2022-09-03T18:11:45;101085.50;;;32.19;23.26
21547;BME280;41275;51.912;4.388;2022-09-03T18:17:36;101094.59;;;32.00;23.65
21547;BME280;41275;51.912;4.388;2022-09-03T18:23:04;101106.06;;;31.86;24.04
21547;BME280;41275;51.912;4.388;2022-09-03T18:28:59;101112.47;;;31.74;24.40
21547;BME280;41275;51.912;4.388;2022-09-03T18:34:40;101125.88;;;31.80;24.17
21547;BME280;41275;51.912;4.388;2022-09-03T18:40:30;101135.66;;;31.81;24.35
21547;BME280;41275;51.912;4.388;2022-09-03T18:46:22;101145.44;;;31.82;24.60
21547;BME280;41275;51.912;4.388;2022-09-03T18:52:33;101143.00;;;31.76;24.60
21547;BME280;41275;51.912;4.388;2022-09-03T18:58:36;101144.31;;;31.63;24.90
21547;BME280;41275;51.912;4.388;2022-09-03T19:10:54;101155.16;;;31.37;25.71
21547;BME280;41275;51.912;4.388;2022-09-03T19:22:36;101171.47;;;31.33;25.50
21547;BME280;41275;51.912;4.388;2022-09-03T19:46:21;101199.06;;;30.93;27.26
21547;BME280;41275;51.912;4.388;2022-09-03T19:57:59;101180.78;;;30.62;27.86
21547;BME280;41275;51.912;4.388;2022-09-03T20:03:42;101196.53;;;30.52;27.87
21547;BME280;41275;51.912;4.388;2022-09-03T20:09:27;101196.53;;;30.37;28.05
21547;BME280;41275;51.912;4.388;2022-09-03T20:15:08;101181.03;;;30.25;28.33
21547;BME280;41275;51.912;4.388;2022-09-03T20:26:00;101192.41;;;30.43;28.26
21547;BME280;41275;51.912;4.388;2022-09-03T20:31:34;101203.06;;;30.48;28.38
21547;BME280;41275;51.912;4.388;2022-09-03T20:37:38;101212.63;;;30.42;28.70
21547;BME280;41275;51.912;4.388;2022-09-03T20:43:24;101217.75;;;30.27;29.09
21547;BME280;41275;51.912;4.388;2022-09-03T20:55:06;101218.19;;;30.01;29.95
21547;BME280;41275;51.912;4.388;2022-09-03T21:01:07;101214.16;;;29.95;30.29
21547;BME280;41275;51.912;4.388;2022-09-03T21:12:37;101222.63;;;29.78;30.67
21547;BME280;41275;51.912;4.388;2022-09-03T21:24:09;101229.09;;;29.33;32.18
21547;BME280;41275;51.912;4.388;2022-09-03T21:29:46;101232.97;;;29.20;33.29
21547;BME280;41275;51.912;4.388;2022-09-03T21:35:24;101234.69;;;29.00;34.99
21547;BME280;41275;51.912;4.388;2022-09-03T21:46:48;101242.84;;;28.87;36.59
21547;BME280;41275;51.912;4.388;2022-09-03T21:52:16;101251.78;;;28.76;37.08
21547;BME280;41275;51.912;4.388;2022-09-03T21:57:58;101247.94;;;28.65;38.30
21547;BME280;41275;51.912;4.388;2022-09-03T22:03:22;101254.28;;;28.56;39.15
21547;BME280;41275;51.912;4.388;2022-09-03T22:14:23;101252.09;;;28.37;39.73
21547;BME280;41275;51.912;4.388;2022-09-03T22:19:47;101254.53;;;28.30;40.28
21547;BME280;41275;51.912;4.388;2022-09-03T22:25:21;101256.53;;;28.21;40.38
21547;BME280;41275;51.912;4.388;2022-09-03T22:30:54;101244.81;;;28.08;40.93
21547;BME280;41275;51.912;4.388;2022-09-03T22:36:28;101258.28;;;28.05;41.19
21547;BME280;41275;51.912;4.388;2022-09-03T22:53:22;101265.13;;;27.90;42.04
21547;BME280;41275;51.912;4.388;2022-09-03T22:59:09;101259.59;;;27.86;42.11
21547;BME280;41275;51.912;4.388;2022-09-03T23:04:47;101265.69;;;27.83;42.34
21547;BME280;41275;51.912;4.388;2022-09-03T23:10:14;101269.06;;;27.80;42.36
21547;BME280;41275;51.912;4.388;2022-09-03T23:15:38;101278.06;;;27.72;42.57
21547;BME280;41275;51.912;4.388;2022-09-03T23:21:06;101288.22;;;27.63;42.76
21547;BME280;41275;51.912;4.388;2022-09-03T23:26:33;101284.94;;;27.49;43.05
21547;BME280;41275;51.912;4.388;2022-09-03T23:31:56;101278.16;;;27.34;43.35
21547;BME280;41275;51.912;4.388;2022-09-03T23:54:24;101285.50;;;27.33;43.66
